Grand Central Airport

Jump to: basic info | weather | frequencies | runways | comments

Related pages: nearby airports | nearby navaids | notams | map

Basic information (top)

Codes: GCJ FAGC
Location: lon -25.986300, lat 28.140100, elev 5,325 ft / 1,623 m msl
Status: medium_airport
Scheduled airline service: no
Links: Wikipedia Mobile

Weather (top)

Current conditions (rec'd 2014/04/23 16:00Z):

FAGC 231600Z AUTO 03005KT //// // ////// 15/08 Q1018

Airport forecast for Waterkloof Air Force Base 10nm (19km) NNE (rec'd 2014/04/09 07:00Z):

TAF FAWK 090600Z 0907/0918 VRB02KT CAVOK 
      BECMG 0908/0910 08006KT SCT040 
     FM091800 VRB02KT CAVOK TX24/0913ZTN16/0918Z

Frequencies (top)

Verify before use: may be inaccurate or out of date.

AFIS: 122.8 MHz (AFIS)

Runways (top)

17/35: 6,004 x 75 ft (1,830 x 23 m) — paved — lighted — threshold 17 displaced 175 ft (53 m) — threshold 35 displaced 175 ft (53 m)

Latest comments (top)

No comments yet for Grand Central Airport

More... (top)

See also NOTAMs and nearby airports and navaids, or visit the Grand Central Airport page at the main OurAirports website..